Open Full Screen Window  High Contrast Mode
Wind Gusting 00 knots
06
May 25, 2016 8:32 PM EDT
Weather Information
Wind Direction
  200 °
Wind Speed
  06 kt (7 mph)
Wind Gust
  00 kt (0 mph)
Altimeter
30.05 in
Visibility
10 SM
Temperature
25° C
77° F
Dewpoint
16° C
61° F
Humidity
57%
1hr Rain Fall
00.00 in.
24hr Rain Fall
00.00 in.
Sky Condition
Broken @ 5,000 ft
Scattered @ 4,400 ft
VFR

METAR KI69 260032Z AUTO 20006KT 10SM SCT044 BKN050 25/16 A3005 RMK AO2 T02500163

*Background is not an actual portrayal of the airport.